Time;durP1;ratioP1;P1;durP2;ratioP2;P2;SDS_P1;SDS_P2;PMS_P1;PMS_P2;Temp;Humidity;BMP_temperature;BMP_pressure;BME280_temperature;BME280_humidity;BME280_pressure;Samples;Min_cycle;Max_cycle;Signal;HPM_P1;HPM_P2
2022/08/07 00:00:07;;;;;;;6.47;3.92;;;;;;;20.65;65.34;100587.43;1658738;85;21258;-57
2022/08/07 00:03:16;;;;;;;7.85;3.70;;;;;;;20.64;65.37;100591.31;1667805;85;21205;-57
2022/08/07 00:06:24;;;;;;;6.83;3.92;;;;;;;20.62;65.41;100581.81;1662842;86;21259;-57
2022/08/07 00:09:32;;;;;;;6.25;4.17;;;;;;;20.58;65.37;100582.52;1701594;84;21165;-57
2022/08/07 00:12:40;;;;;;;10.05;3.55;;;;;;;20.53;65.38;100580.42;1642481;86;21381;-57
2022/08/07 00:15:48;;;;;;;8.10;4.28;;;;;;;20.50;65.41;100580.07;1629798;87;21244;-57
2022/08/07 00:18:55;;;;;;;8.60;3.83;;;;;;;20.44;65.44;100581.84;1629657;88;21247;-56
2022/08/07 00:22:03;;;;;;;8.35;3.87;;;;;;;20.41;65.48;100589.80;1629577;88;21252;-57
2022/08/07 00:25:14;;;;;;;9.43;3.83;;;;;;;20.37;65.57;100591.38;1629654;87;21228;-57
2022/08/07 00:28:21;;;;;;;11.40;3.65;;;;;;;20.34;65.62;100596.84;1613220;87;21257;-57
2022/08/07 00:31:28;;;;;;;6.85;3.67;;;;;;;20.32;65.68;100592.61;1629567;88;21253;-57
2022/08/07 00:34:35;;;;;;;6.70;3.90;;;;;;;20.29;65.74;100593.08;1629135;87;21280;-56
2022/08/07 00:37:43;;;;;;;9.70;3.65;;;;;;;20.26;65.76;100595.80;1667793;86;21247;-57
2022/08/07 00:40:47;;;;;;;6.58;3.83;;;;;;;20.24;65.76;100598.48;1641815;86;21161;-57
2022/08/07 00:43:56;;;;;;;6.22;3.90;;;;;;;20.19;65.82;100598.33;1662816;85;21288;-57
2022/08/07 00:47:03;;;;;;;5.62;3.60;;;;;;;20.15;65.84;100599.89;1701572;84;21177;-57
2022/08/07 00:50:10;;;;;;;6.42;3.77;;;;;;;20.14;65.95;100600.42;1701607;84;21197;-57
2022/08/07 00:53:18;;;;;;;5.35;3.95;;;;;;;20.11;65.95;100596.69;1701506;84;21268;-57
2022/08/07 00:56:24;;;;;;;5.08;3.65;;;;;;;20.07;65.92;100596.86;1667864;85;21221;-57
2022/08/07 00:59:33;;;;;;;5.20;3.90;;;;;;;20.00;65.94;100593.83;1662861;85;21221;-57
2022/08/07 01:02:41;;;;;;;7.62;4.10;;;;;;;19.98;66.06;100596.84;1701483;84;21177;-56
2022/08/07 01:05:49;;;;;;;7.50;4.12;;;;;;;19.96;66.15;100593.47;1667738;86;21244;-55
2022/08/07 01:08:55;;;;;;;6.47;3.90;;;;;;;19.96;66.27;100599.55;1662788;86;21264;-57
2022/08/07 01:12:00;;;;;;;10.80;4.40;;;;;;;19.93;66.25;100598.06;1701627;84;21237;-56
2022/08/07 01:15:08;;;;;;;6.25;3.95;;;;;;;19.89;66.26;100598.23;1701408;84;21213;-56
2022/08/07 01:18:16;;;;;;;5.55;4.08;;;;;;;19.85;66.30;100597.55;1645570;86;21204;-56
2022/08/07 01:21:27;;;;;;;10.25;4.55;;;;;;;19.83;66.35;100598.30;1662667;85;21343;-56
2022/08/07 01:24:35;;;;;;;7.37;3.90;;;;;;;19.78;66.38;100601.78;1662969;86;21300;-56
2022/08/07 01:27:43;;;;;;;8.13;3.83;;;;;;;19.75;66.44;100604.16;1662680;86;21228;-56
2022/08/07 01:30:50;;;;;;;6.97;3.92;;;;;;;19.71;66.46;100601.55;1701637;84;21173;-56
2022/08/07 01:34:00;;;;;;;9.20;4.33;;;;;;;19.69;66.62;100600.39;1701472;84;21185;-56
2022/08/07 01:37:08;;;;;;;5.55;4.00;;;;;;;19.70;66.69;100602.61;1699440;84;21371;-56
2022/08/07 01:40:17;;;;;;;9.33;3.92;;;;;;;19.68;66.68;100606.17;1656935;86;21213;-56
2022/08/07 01:43:25;;;;;;;7.35;3.90;;;;;;;19.65;66.65;100608.00;1662370;86;21288;-56
2022/08/07 01:46:32;;;;;;;4.83;4.10;;;;;;;19.60;66.72;100596.75;1682274;84;21246;-56
2022/08/07 01:49:40;;;;;;;9.25;4.30;;;;;;;19.60;66.84;100612.03;1660547;86;21607;-57
2022/08/07 01:52:51;;;;;;;6.80;4.05;;;;;;;19.60;66.93;100598.14;1667675;86;21295;-57
2022/08/07 01:55:59;;;;;;;10.68;4.58;;;;;;;19.59;66.95;100605.61;1667785;86;21584;-57
2022/08/07 01:59:20;;;;;;;15.25;4.35;;;;;;;19.58;67.01;100603.92;1662217;86;21244;-56
2022/08/07 02:02:57;;;;;;;7.10;4.60;;;;;;;19.57;67.03;100595.27;1678531;84;21258;-57
2022/08/07 02:06:13;;;;;;;6.25;3.90;;;;;;;19.57;67.06;100604.16;1630807;85;21233;-57
2022/08/07 02:09:25;;;;;;;9.10;3.72;;;;;;;19.56;67.08;100607.99;1630498;87;21206;-57
2022/08/07 02:12:32;;;;;;;9.78;4.78;;;;;;;19.52;67.12;100599.26;1664553;86;21289;-57
2022/08/07 02:15:41;;;;;;;7.70;3.87;;;;;;;19.50;67.14;100606.99;1665700;86;21352;-57
2022/08/07 02:18:49;;;;;;;11.78;4.55;;;;;;;19.48;67.18;100608.28;1665578;86;21794;-58
2022/08/07 02:21:58;;;;;;;6.83;4.37;;;;;;;19.46;67.26;100594.62;1646124;85;21246;-55
2022/08/07 02:25:10;;;;;;;12.10;5.35;;;;;;;19.45;67.32;100604.05;1701318;84;21196;-57
2022/08/07 02:28:19;;;;;;;9.58;4.40;;;;;;;19.44;67.36;100600.94;1656512;86;21256;-55
2022/08/07 02:31:27;;;;;;;9.95;4.17;;;;;;;19.44;67.37;100607.05;1662306;85;21232;-57
2022/08/07 02:34:34;;;;;;;6.85;4.62;;;;;;;19.38;67.36;100599.64;1626638;87;21197;-56
2022/08/07 02:37:42;;;;;;;7.58;4.42;;;;;;;19.36;67.46;100600.39;1615927;86;21177;-56
2022/08/07 02:40:50;;;;;;;6.78;4.47;;;;;;;19.33;67.47;100603.07;1656165;86;21233;-55
2022/08/07 02:43:59;;;;;;;10.75;4.22;;;;;;;19.30;67.48;100601.61;1604161;88;21387;-56
2022/08/07 02:47:08;;;;;;;9.85;4.53;;;;;;;19.28;67.54;100605.14;1655489;86;21402;-55
2022/08/07 02:50:17;;;;;;;5.95;4.00;;;;;;;19.26;67.56;100608.67;1627983;87;21172;-56
2022/08/07 02:53:40;;;;;;;9.65;4.03;;;;;;;19.25;67.61;100618.06;1642139;86;21330;-56
2022/08/07 02:56:46;;;;;;;7.25;4.08;;;;;;;19.26;67.68;100623.95;1614697;87;21229;-55
2022/08/07 02:59:53;;;;;;;8.50;4.45;;;;;;;19.26;67.66;100625.33;1655525;86;21289;-55
2022/08/07 03:03:02;;;;;;;7.25;4.05;;;;;;;19.26;67.69;100612.84;1589203;88;21305;-56
2022/08/07 03:06:11;;;;;;;9.03;3.80;;;;;;;19.27;67.74;100623.38;1590440;90;21411;-57
2022/08/07 03:09:20;;;;;;;16.70;5.20;;;;;;;19.28;67.80;100630.69;1604595;87;21277;-56
2022/08/07 03:12:29;;;;;;;12.93;4.37;;;;;;;19.33;67.90;100619.20;1655671;86;21201;-57
2022/08/07 03:15:37;;;;;;;6.65;4.03;;;;;;;19.39;67.97;100624.40;1592131;90;21227;-57
2022/08/07 03:18:46;;;;;;;6.45;3.67;;;;;;;19.48;68.04;100624.94;1566894;90;21252;-57
2022/08/07 03:21:55;;;;;;;7.03;3.80;;;;;;;19.53;68.03;100629.28;1594500;89;21268;-57
2022/08/07 03:25:03;;;;;;;4.95;3.50;;;;;;;19.59;68.05;100631.14;1630765;86;21256;-56
2022/08/07 03:28:11;;;;;;;6.22;3.65;;;;;;;19.67;68.09;100628.07;1634777;87;21300;-56
2022/08/07 03:31:19;;;;;;;6.00;3.92;;;;;;;19.69;68.05;100632.86;1609884;89;21205;-56
2022/08/07 03:34:27;;;;;;;9.88;3.72;;;;;;;19.73;68.03;100631.31;1609116;89;21296;-56
2022/08/07 03:37:37;;;;;;;3.75;3.20;;;;;;;19.78;68.07;100627.31;1608775;82;21272;-55
2022/08/07 03:40:48;;;;;;;8.80;3.95;;;;;;;19.79;68.08;100629.86;1640782;87;21961;-55
2022/08/07 03:43:54;;;;;;;8.50;4.55;;;;;;;19.82;68.10;100629.40;1607453;89;21231;-57
2022/08/07 03:47:02;;;;;;;10.10;3.55;;;;;;;19.87;68.14;100635.69;1610914;89;21258;-57
2022/08/07 03:50:12;;;;;;;7.55;3.87;;;;;;;19.91;68.16;100641.94;1612154;88;21284;-57
2022/08/07 03:53:21;;;;;;;6.78;3.75;;;;;;;19.95;68.15;100638.99;1640392;87;21188;-56
2022/08/07 03:56:29;;;;;;;9.03;3.92;;;;;;;20.00;68.17;100641.94;1604078;89;21220;-57
2022/08/07 03:59:36;;;;;;;8.63;3.83;;;;;;;20.04;68.16;100640.94;1603812;89;21252;-57
2022/08/07 04:02:44;;;;;;;10.13;4.10;;;;;;;20.09;68.17;100648.05;1603271;89;21312;-57
2022/08/07 04:05:54;;;;;;;9.70;3.52;;;;;;;20.14;68.20;100649.60;1603733;89;21300;-56
2022/08/07 04:09:01;;;;;;;9.50;4.37;;;;;;;20.20;68.22;100641.19;1603707;88;21252;-56
2022/08/07 04:12:10;;;;;;;6.45;3.77;;;;;;;20.24;68.22;100644.36;1603906;89;21434;-57
2022/08/07 04:15:21;;;;;;;9.50;4.33;;;;;;;20.31;68.29;100648.75;1605951;86;21283;-56
2022/08/07 04:18:28;;;;;;;13.80;4.42;;;;;;;20.39;68.27;100653.17;1615017;88;21357;-56
2022/08/07 04:21:37;;;;;;;8.48;3.62;;;;;;;20.45;68.28;100646.67;1588374;89;21284;-56
2022/08/07 04:24:45;;;;;;;10.85;4.28;;;;;;;20.52;68.33;100648.28;1603312;89;21324;-57
2022/08/07 04:27:53;;;;;;;5.80;4.00;;;;;;;20.59;68.25;100650.97;1567477;89;21279;-57
2022/08/07 04:31:02;;;;;;;5.17;3.70;;;;;;;20.63;68.22;100649.41;1621833;88;21351;-56
2022/08/07 04:34:09;;;;;;;6.42;3.72;;;;;;;20.68;68.12;100650.95;1626445;88;21177;-57
2022/08/07 04:37:19;;;;;;;8.60;4.10;;;;;;;20.74;68.07;100659.74;1609848;88;21212;-57
2022/08/07 04:40:30;;;;;;;7.08;4.03;;;;;;;20.77;68.03;100655.13;1613094;84;21292;-57
2022/08/07 04:43:43;;;;;;;7.53;3.95;;;;;;;20.87;68.17;100658.17;1621374;88;21272;-58
2022/08/07 04:47:22;;;;;;;8.05;4.42;;;;;;;21.01;68.25;100665.84;1616818;88;21387;-55
2022/08/07 04:50:44;;;;;;;5.55;3.98;;;;;;;21.13;68.24;100663.39;1616834;88;21268;-55
2022/08/07 04:54:18;;;;;;;6.78;4.00;;;;;;;21.29;68.27;100660.47;1603992;88;21267;-56
2022/08/07 04:57:37;;;;;;;6.85;3.83;;;;;;;21.45;68.25;100666.20;1616660;89;21292;-56
2022/08/07 05:01:01;;;;;;;4.45;3.77;;;;;;;21.55;68.12;100662.83;1604500;87;21209;-56
2022/08/07 05:04:23;;;;;;;9.40;4.33;;;;;;;21.62;68.08;100667.19;1637993;87;21229;-56
2022/08/07 05:07:41;;;;;;;10.55;3.90;;;;;;;21.72;68.06;100665.20;1637692;87;21250;-56
2022/08/07 05:10:58;;;;;;;8.80;3.83;;;;;;;21.79;68.02;100657.58;1662686;86;21288;-56
2022/08/07 05:14:11;;;;;;;6.40;4.37;;;;;;;21.88;68.05;100668.13;1665756;85;21188;-57
2022/08/07 05:17:21;;;;;;;7.53;4.03;;;;;;;22.00;68.08;100667.60;1621250;88;21303;-57
2022/08/07 05:20:39;;;;;;;12.85;6.65;;;;;;;22.08;67.97;100665.84;1620431;87;21227;-56
2022/08/07 05:23:55;;;;;;;8.68;4.75;;;;;;;22.22;68.05;100665.02;1611315;89;21272;-56
2022/08/07 05:27:02;;;;;;;;;;;;;;;22.39;68.08;100671.53;1595243;90;21320;-57
2022/08/07 05:30:13;;;;;;;9.15;4.10;;;;;;;22.55;67.98;100667.19;1629805;87;20251;-56
2022/08/07 05:33:22;;;;;;;10.08;4.10;;;;;;;22.66;67.90;100671.31;1607459;89;21304;-56
2022/08/07 05:36:32;;;;;;;6.97;3.45;;;;;;;22.78;67.78;100677.72;1620998;88;21241;-56
2022/08/07 05:39:40;;;;;;;9.60;3.80;;;;;;;22.89;67.68;100675.44;1623577;88;21856;-57
2022/08/07 05:42:48;;;;;;;7.05;3.83;;;;;;;22.99;67.55;100679.80;1602451;88;21248;-56
2022/08/07 05:45:54;;;;;;;7.12;3.80;;;;;;;23.06;67.41;100679.66;1616909;88;21611;-56
2022/08/07 05:49:03;;;;;;;5.95;3.60;;;;;;;23.14;67.36;100682.05;1616921;88;21201;-55
2022/08/07 05:52:13;;;;;;;6.83;3.62;;;;;;;23.21;67.31;100674.37;1601818;88;21255;-56
2022/08/07 05:55:23;;;;;;;7.05;3.47;;;;;;;23.35;67.36;100678.58;1617588;88;21754;-56
2022/08/07 05:58:32;;;;;;;7.30;3.92;;;;;;;23.45;67.28;100676.80;1617237;88;21260;-56
2022/08/07 06:01:43;;;;;;;8.75;4.12;;;;;;;23.55;67.23;100678.38;1604564;88;21220;-57
2022/08/07 06:04:54;;;;;;;8.05;3.98;;;;;;;23.63;67.05;100682.16;1602506;88;21232;-56
2022/08/07 06:08:08;;;;;;;7.33;3.87;;;;;;;23.75;67.05;100690.47;1617427;88;21239;-56
2022/08/07 06:11:16;;;;;;;7.95;3.67;;;;;;;23.83;66.87;100686.39;1617635;88;21217;-57
2022/08/07 06:14:23;;;;;;;8.38;4.20;;;;;;;23.93;66.94;100680.97;1574786;89;21249;-56
2022/08/07 06:17:31;;;;;;;12.43;4.15;;;;;;;24.15;67.10;100678.53;1617114;88;21260;-56
2022/08/07 06:20:40;;;;;;;10.00;3.90;;;;;;;24.41;67.12;100677.80;1617341;88;21208;-57
2022/08/07 06:23:50;;;;;;;5.45;3.50;;;;;;;24.63;67.03;100684.80;1618271;88;21253;-57
2022/08/07 06:26:57;;;;;;;11.63;4.58;;;;;;;24.84;67.02;100683.99;1617402;88;21244;-56
2022/08/07 06:30:07;;;;;;;8.73;4.25;;;;;;;25.07;66.93;100680.06;1617212;88;21746;-56
2022/08/07 06:33:14;;;;;;;6.83;4.15;;;;;;;25.31;66.90;100685.07;1614789;88;21249;-56
2022/08/07 06:36:25;;;;;;;6.67;4.30;;;;;;;25.52;66.82;100681.95;1660778;85;21193;-56
2022/08/07 06:39:33;;;;;;;9.23;3.72;;;;;;;25.73;66.76;100678.22;1679680;85;21248;-56
2022/08/07 06:42:46;;;;;;;6.50;4.30;;;;;;;25.98;66.83;100673.66;1628809;85;21245;-57
2022/08/07 06:46:04;;;;;;;5.85;4.22;;;;;;;26.22;66.75;100672.17;1618609;87;21350;-56
2022/08/07 06:49:12;;;;;;;7.97;4.37;;;;;;;26.45;66.65;100666.66;1727360;81;21165;-55
2022/08/07 06:52:19;;;;;;;7.00;3.85;;;;;;;26.67;66.54;100672.97;1702302;82;21240;-55
2022/08/07 06:55:29;;;;;;;9.35;4.10;;;;;;;26.83;66.35;100674.73;1681966;83;21221;-56
2022/08/07 06:58:37;;;;;;;10.43;3.77;;;;;;;27.01;66.27;100670.03;1674936;83;21243;-56
2022/08/07 07:01:45;;;;;;;8.00;3.77;;;;;;;27.19;66.14;100668.67;1709989;82;21753;-56
2022/08/07 07:04:54;;;;;;;11.78;3.58;;;;;;;27.34;66.01;100667.31;1711849;84;21208;-56
2022/08/07 07:08:00;;;;;;;8.78;2.98;;;;;;;27.49;65.84;100665.39;1691259;83;21264;-56
2022/08/07 07:11:13;;;;;;;10.40;3.30;;;;;;;27.65;65.58;100670.45;1684988;84;21208;-56
2022/08/07 07:14:21;;;;;;;8.33;3.17;;;;;;;27.78;65.40;100670.72;1686580;83;21220;-56
2022/08/07 07:17:35;;;;;;;8.78;2.90;;;;;;;27.92;65.22;100671.59;1680454;84;21228;-56
2022/08/07 07:20:51;;;;;;;6.47;2.92;;;;;;;28.02;64.82;100672.42;1684185;83;21255;-56
2022/08/07 07:23:57;;;;;;;6.42;2.92;;;;;;;28.15;64.57;100679.44;1653412;86;21271;-56
2022/08/07 07:27:04;;;;;;;6.10;2.70;;;;;;;28.29;64.51;100678.58;1658240;84;21256;-56
2022/08/07 07:30:12;;;;;;;9.00;2.83;;;;;;;28.46;64.43;100682.48;1681479;83;21232;-55
2022/08/07 07:33:21;;;;;;;8.98;5.85;;;;;;;28.63;64.27;100685.84;1686832;84;21830;-56
2022/08/07 07:36:31;;;;;;;;;;;;;;;28.78;64.17;100685.21;1687565;84;21190;-57
2022/08/07 07:39:38;;;;;;;7.20;2.98;;;;;;;28.92;63.93;100679.81;1684637;85;20185;-56
2022/08/07 07:42:50;;;;;;;6.28;2.75;;;;;;;28.97;63.64;100684.84;1684880;85;21272;-57
2022/08/07 07:46:00;;;;;;;4.10;2.58;;;;;;;29.02;63.46;100681.14;1685117;84;21209;-56
2022/08/07 07:49:09;;;;;;;5.95;2.42;;;;;;;29.01;63.16;100682.29;1684991;83;21359;-56
2022/08/07 07:52:24;;;;;;;4.65;2.40;;;;;;;29.01;63.04;100676.09;1631821;88;21278;-57
2022/08/07 07:55:36;;;;;;;8.03;2.60;;;;;;;28.98;62.94;100678.64;1654354;86;21780;-56
2022/08/07 07:58:46;;;;;;;6.15;2.72;;;;;;;28.89;62.60;100677.58;1658778;86;21264;-55
2022/08/07 08:01:53;;;;;;;5.62;2.33;;;;;;;28.81;62.52;100683.22;1653312;85;21232;-55
2022/08/07 08:05:01;;;;;;;6.53;2.45;;;;;;;28.77;62.47;100681.27;1628212;88;21376;-55
2022/08/07 08:08:12;;;;;;;5.28;2.60;;;;;;;28.75;62.48;100682.12;1625230;86;21260;-55
2022/08/07 08:11:19;;;;;;;8.25;2.65;;;;;;;28.73;62.47;100681.59;1612958;85;21221;-56
2022/08/07 08:14:27;;;;;;;6.05;2.92;;;;;;;28.73;62.37;100674.54;1700829;83;21264;-57
2022/08/07 08:17:37;;;;;;;5.47;2.40;;;;;;;28.71;62.32;100676.80;1661166;86;21828;-56
2022/08/07 08:20:45;;;;;;;5.90;2.30;;;;;;;28.68;62.10;100675.96;1709599;83;21217;-55
2022/08/07 08:27:20;;;;;;;10.23;2.60;;;;;;;28.69;61.92;100672.85;1722392;82;21256;-56
2022/08/07 08:30:31;;;;;;;4.15;2.37;;;;;;;28.68;61.76;100671.73;1719657;83;21268;-57
2022/08/07 08:33:42;;;;;;;9.85;2.35;;;;;;;28.69;61.60;100671.45;1681674;84;21224;-57
2022/08/07 08:36:51;;;;;;;4.30;2.35;;;;;;;28.67;61.43;100665.83;1682057;84;21221;-57
2022/08/07 08:39:59;;;;;;;7.17;2.40;;;;;;;28.67;61.33;100672.29;1674594;85;21218;-57
2022/08/07 08:43:26;;;;;;;3.92;2.25;;;;;;;28.69;61.14;100663.55;1691760;84;21312;-57
2022/08/07 08:46:53;;;;;;;6.72;2.40;;;;;;;28.69;60.96;100662.99;1691720;85;21731;-57
2022/08/07 08:50:35;;;;;;;9.40;2.70;;;;;;;28.76;60.85;100663.54;1689117;83;21390;-58
2022/08/07 08:54:13;;;;;;;7.60;2.60;;;;;;;28.84;60.78;100659.27;1684047;84;21201;-56
2022/08/07 08:57:30;;;;;;;5.33;2.50;;;;;;;28.91;60.70;100662.59;1677478;84;21246;-57
2022/08/07 09:00:41;;;;;;;6.90;1.90;;;;;;;28.94;60.49;100662.02;1697635;84;21208;-57
2022/08/07 09:03:58;;;;;;;5.53;2.37;;;;;;;28.97;60.34;100660.05;1678591;84;21285;-56
2022/08/07 09:07:41;;;;;;;5.58;2.20;;;;;;;29.00;60.12;100662.29;1706955;82;21303;-57
2022/08/07 09:11:09;;;;;;;4.85;2.22;;;;;;;29.01;59.81;100656.92;1704982;84;21268;-57
2022/08/07 09:14:45;;;;;;;10.13;2.90;;;;;;;29.02;59.56;100657.18;1645238;85;21268;-58
2022/08/07 09:18:21;;;;;;;5.70;2.40;;;;;;;29.09;59.46;100661.98;1710603;82;22625;-57
2022/08/07 09:21:44;;;;;;;3.55;2.10;;;;;;;29.13;59.16;100661.66;1713051;82;21312;-57
2022/08/07 09:25:18;;;;;;;4.03;2.40;;;;;;;29.17;58.97;100659.96;1734096;82;21675;-56
2022/08/07 09:28:37;;;;;;;6.15;2.75;;;;;;;29.22;58.84;100662.75;1719966;82;21819;-57
2022/08/07 09:32:27;;;;;;;6.00;2.12;;;;;;;29.28;58.69;100660.17;1707701;82;21321;-57
2022/08/07 09:36:01;;;;;;;6.37;2.50;;;;;;;29.34;58.41;100660.41;1712368;84;21197;-58
2022/08/07 09:39:50;;;;;;;5.90;2.37;;;;;;;29.39;58.02;100666.57;1683747;85;21304;-57
2022/08/07 09:43:25;;;;;;;5.00;1.70;;;;;;;29.46;57.90;100665.13;1683455;84;21220;-57
2022/08/07 09:47:16;;;;;;;4.15;1.80;;;;;;;29.54;57.59;100658.87;1739212;81;21193;-57
2022/08/07 09:50:39;;;;;;;3.30;1.80;;;;;;;29.60;57.33;100663.89;1737079;81;21286;-58
2022/08/07 09:53:50;;;;;;;6.83;2.20;;;;;;;29.66;57.04;100662.73;1713765;82;21284;-55
2022/08/07 09:57:17;;;;;;;6.75;2.10;;;;;;;29.74;56.80;100662.95;1715552;82;21240;-56
2022/08/07 10:00:33;;;;;;;7.17;2.00;;;;;;;29.90;56.46;100659.42;1717711;82;21204;-57
2022/08/07 10:04:08;;;;;;;7.58;2.45;;;;;;;29.90;56.46;100659.42;1713081;82;21875;-56
2022/08/07 10:07:37;;;;;;;5.53;2.30;;;;;;;29.94;56.24;100661.36;1712821;82;21325;-56
2022/08/07 10:11:16;;;;;;;4.70;2.70;;;;;;;29.99;55.91;100657.08;1704142;84;21269;-57
2022/08/07 10:14:55;;;;;;;5.72;1.95;;;;;;;30.09;55.70;100654.16;1703906;84;21240;-56
2022/08/07 10:18:24;;;;;;;4.33;2.10;;;;;;;30.18;55.47;100652.36;1705028;83;21244;-57
2022/08/07 10:22:23;;;;;;;10.93;2.08;;;;;;;30.30;55.31;100647.76;1713943;83;21212;-57
2022/08/07 10:26:03;;;;;;;3.85;1.70;;;;;;;30.42;55.13;100651.00;1716481;82;21190;-58
2022/08/07 10:29:52;;;;;;;2.47;2.15;;;;;;;30.52;54.74;100641.82;1702721;83;21204;-58
2022/08/07 10:33:29;;;;;;;7.12;1.62;;;;;;;30.61;54.39;100640.03;1684880;85;21245;-57
2022/08/07 10:36:52;;;;;;;4.67;1.32;;;;;;;30.72;54.08;100642.71;1684442;85;21919;-57
2022/08/07 10:40:29;;;;;;;9.70;1.80;;;;;;;30.81;53.80;100642.36;1708955;84;21268;-57
2022/08/07 10:43:47;;;;;;;4.03;1.35;;;;;;;30.87;53.31;100639.17;1712264;82;21817;-57
2022/08/07 10:47:19;;;;;;;4.50;1.45;;;;;;;30.95;52.97;100634.81;1713632;82;21607;-57
2022/08/07 10:50:32;;;;;;;2.62;1.60;;;;;;;31.03;52.63;100632.72;1712807;83;21225;-56
2022/08/07 10:53:56;;;;;;;4.25;1.35;;;;;;;31.14;52.42;100631.42;1713663;82;21243;-59
2022/08/07 10:57:32;;;;;;;3.08;1.17;;;;;;;31.26;52.19;100627.55;1713863;82;21312;-57
2022/08/07 11:00:46;;;;;;;8.48;1.57;;;;;;;31.36;51.71;100631.13;1713600;84;21719;-58
2022/08/07 11:04:07;;;;;;;5.12;1.77;;;;;;;31.43;51.32;100630.73;1714005;82;21257;-59
2022/08/07 11:07:50;;;;;;;3.80;1.22;;;;;;;31.47;50.90;100630.37;1714776;82;21209;-58
2022/08/07 11:11:23;;;;;;;6.45;1.60;;;;;;;31.53;50.72;100617.81;1714478;83;21220;-57
2022/08/07 11:14:48;;;;;;;4.00;1.60;;;;;;;31.66;50.57;100622.69;1714206;84;21300;-57
2022/08/07 11:18:08;;;;;;;5.28;1.62;;;;;;;31.82;50.40;100622.70;1699846;82;21228;-58
2022/08/07 11:21:32;;;;;;;4.37;1.45;;;;;;;31.96;50.17;100618.78;1684383;85;21379;-57
2022/08/07 11:25:00;;;;;;;3.33;1.40;;;;;;;32.08;49.80;100609.76;1685143;85;21372;-55
2022/08/07 11:28:22;;;;;;;6.10;1.35;;;;;;;32.11;49.37;100607.75;1649197;85;21237;-56
2022/08/07 11:31:50;;;;;;;3.80;1.50;;;;;;;32.17;48.93;100609.89;1657464;86;21279;-57
2022/08/07 11:35:18;;;;;;;3.50;1.62;;;;;;;32.11;48.54;100610.58;1668036;84;21181;-57
2022/08/07 11:38:54;;;;;;;2.95;1.50;;;;;;;32.11;48.27;100604.06;1657922;85;21740;-57
2022/08/07 11:42:27;;;;;;;4.70;1.50;;;;;;;32.14;48.10;100601.45;1657884;85;21268;-57
2022/08/07 11:45:38;;;;;;;4.35;1.67;;;;;;;32.21;47.97;100594.77;1666976;85;21268;-57
2022/08/07 11:49:28;;;;;;;6.10;2.08;;;;;;;32.25;47.59;100592.16;1685470;85;21224;-58
2022/08/07 11:53:14;;;;;;;6.08;1.80;;;;;;;32.23;47.29;100599.56;1695078;79;21215;-58
2022/08/07 11:56:43;;;;;;;4.20;1.70;;;;;;;32.25;47.12;100593.02;1720240;82;21220;-57
2022/08/07 12:00:12;;;;;;;5.05;1.62;;;;;;;32.29;46.87;100591.21;1688003;84;21213;-56
2022/08/07 12:03:30;;;;;;;2.17;1.37;;;;;;;32.31;46.49;100588.06;1676968;84;21359;-57
2022/08/07 12:06:54;;;;;;;3.70;1.40;;;;;;;32.27;46.13;100577.11;1684637;84;21209;-57
2022/08/07 12:10:13;;;;;;;7.33;1.90;;;;;;;32.25;45.80;100586.49;1684121;85;21204;-58
2022/08/07 12:13:49;;;;;;;4.22;1.37;;;;;;;32.22;45.57;100585.14;1684681;84;21799;-58
2022/08/07 12:17:08;;;;;;;4.35;1.50;;;;;;;32.22;45.34;100578.63;1677731;84;21232;-57
2022/08/07 12:20:31;;;;;;;7.30;1.80;;;;;;;32.18;45.16;100572.73;1684580;84;21193;-57
2022/08/07 12:23:51;;;;;;;4.00;1.47;;;;;;;32.16;44.96;100572.20;1684952;84;21221;-58
2022/08/07 12:27:10;;;;;;;4.08;1.57;;;;;;;32.15;44.85;100571.95;1692327;83;21264;-58
2022/08/07 12:30:21;;;;;;;1.65;1.25;;;;;;;32.11;44.62;100575.16;1691715;85;21777;-57
2022/08/07 12:33:32;;;;;;;2.70;1.55;;;;;;;32.05;44.20;100571.32;1677645;84;21291;-57
2022/08/07 12:36:38;;;;;;;7.65;2.22;;;;;;;31.99;44.04;100569.15;1684405;84;21663;-58
2022/08/07 12:39:49;;;;;;;2.37;1.37;;;;;;;31.97;43.85;100571.44;1685551;84;21339;-57
2022/08/07 12:42:58;;;;;;;5.35;1.25;;;;;;;31.93;43.68;100567.00;1685014;84;21240;-57
2022/08/07 12:46:34;;;;;;;3.90;1.30;;;;;;;31.91;43.39;100570.72;1685002;85;21196;-57
2022/08/07 12:50:09;;;;;;;4.80;0.98;;;;;;;31.84;43.02;100568.03;1684240;84;21218;-57
2022/08/07 12:53:34;;;;;;;3.83;1.50;;;;;;;31.78;42.76;100568.66;1697646;83;21409;-57
2022/08/07 12:56:54;;;;;;;2.05;1.10;;;;;;;31.76;42.64;100567.30;1712915;82;21232;-57
2022/08/07 13:00:01;;;;;;;5.17;1.30;;;;;;;31.75;42.43;100558.52;1714222;83;21506;-57
2022/08/07 13:03:32;;;;;;;2.98;1.02;;;;;;;31.74;42.23;100556.29;1713205;82;21288;-57
2022/08/07 13:07:14;;;;;;;3.90;1.35;;;;;;;31.71;41.90;100561.73;1707775;83;21729;-57
2022/08/07 13:10:39;;;;;;;4.75;1.50;;;;;;;31.67;41.79;100558.67;1718511;83;21232;-58
2022/08/07 13:14:19;;;;;;;3.45;1.57;;;;;;;31.61;41.62;100553.41;1712573;82;21236;-57
2022/08/07 13:17:53;;;;;;;3.92;1.60;;;;;;;31.55;41.50;100544.18;1690566;82;21225;-56
2022/08/07 13:21:21;;;;;;;3.08;1.50;;;;;;;31.54;41.38;100545.91;1642156;86;21236;-57
2022/08/07 13:24:51;;;;;;;5.22;1.60;;;;;;;31.53;41.27;100547.03;1642912;86;21365;-56
2022/08/07 13:28:09;;;;;;;5.65;1.40;;;;;;;31.55;41.25;100537.67;1620809;87;21799;-58
2022/08/07 13:31:40;;;;;;;4.70;1.20;;;;;;;31.59;41.14;100535.87;1642337;86;21386;-58
2022/08/07 13:34:57;;;;;;;4.92;1.10;;;;;;;31.59;40.81;100545.23;1682935;83;21204;-58
2022/08/07 13:38:36;;;;;;;8.20;1.52;;;;;;;31.62;40.70;100548.03;1644220;85;21208;-57
2022/08/07 13:41:56;;;;;;;4.20;1.35;;;;;;;31.63;40.49;100549.13;1687081;83;21185;-56
2022/08/07 13:45:07;;;;;;;5.67;1.40;;;;;;;31.64;40.30;100552.78;1686764;84;21244;-58
2022/08/07 13:48:16;;;;;;;3.87;2.80;;;;;;;31.68;40.25;100546.78;1694381;84;21789;-57
2022/08/07 13:51:25;;;;;;;3.95;2.20;;;;;;;31.71;40.13;100547.56;1664557;83;21287;-57
2022/08/07 13:54:37;;;;;;;5.78;2.27;;;;;;;31.74;40.02;100556.85;1685624;82;21259;-57
2022/08/07 13:57:47;;;;;;;3.00;1.50;;;;;;;31.77;39.83;100550.56;1691723;85;21782;-53
2022/08/07 14:01:00;;;;;;;6.87;1.35;;;;;;;31.80;39.67;100552.20;1690687;85;21267;-56
2022/08/07 14:04:21;;;;;;;5.22;1.42;;;;;;;31.84;39.54;100548.21;1709495;83;21345;-56
2022/08/07 14:07:36;;;;;;;;;;;;;;;31.89;39.39;100548.94;1722849;82;21225;-57
2022/08/07 14:10:45;;;;;;;9.00;1.40;;;;;;;31.94;39.31;100553.09;1719961;83;20219;-57
2022/08/07 14:13:59;;;;;;;5.05;1.17;;;;;;;31.99;39.16;100553.00;1720733;82;21326;-57
2022/08/07 14:17:06;;;;;;;3.42;1.65;;;;;;;32.04;39.02;100552.05;1720338;82;21271;-56
2022/08/07 14:20:29;;;;;;;3.98;1.05;;;;;;;32.06;38.77;100552.59;1721776;83;21256;-57
2022/08/07 14:23:38;;;;;;;4.65;1.30;;;;;;;32.07;38.56;100557.66;1720630;82;21244;-57
2022/08/07 14:26:53;;;;;;;6.03;1.30;;;;;;;32.10;38.45;100562.13;1720214;82;21768;-56
2022/08/07 14:30:06;;;;;;;6.80;1.30;;;;;;;32.14;38.34;100559.52;1719509;83;21212;-57
2022/08/07 14:33:14;;;;;;;4.47;1.30;;;;;;;32.16;38.08;100568.55;1720601;82;21252;-57
2022/08/07 14:36:27;;;;;;;4.50;1.32;;;;;;;32.16;37.91;100572.80;1707677;83;21209;-57
2022/08/07 14:39:36;;;;;;;5.97;1.52;;;;;;;32.13;37.78;100571.41;1657006;86;21227;-57
2022/08/07 14:42:47;;;;;;;4.92;1.40;;;;;;;32.08;37.58;100582.02;1663180;85;21749;-57
2022/08/07 14:45:58;;;;;;;5.10;1.22;;;;;;;32.00;37.46;100575.06;1674097;83;21278;-57
2022/08/07 14:48:54;;;;;;;7.22;1.32;;;;;;;32.00;37.35;100582.14;1690873;84;21280;-58
2022/08/07 14:51:43;;;;;;;3.80;1.42;;;;;;;31.99;37.25;100573.40;1684759;85;21272;-55
2022/08/07 14:54:41;;;;;;;2.05;1.17;;;;;;;32.02;37.17;100579.03;1682547;84;21287;-57
2022/08/07 14:57:53;;;;;;;5.78;1.57;;;;;;;32.05;37.03;100579.22;1673190;84;21205;-57
2022/08/07 15:01:03;;;;;;;3.85;1.45;;;;;;;32.07;36.87;100577.48;1703459;83;21293;-58
2022/08/07 15:04:11;;;;;;;3.05;1.15;;;;;;;32.03;36.71;100579.28;1709636;82;21259;-57
2022/08/07 15:07:20;;;;;;;6.75;1.55;;;;;;;31.98;36.56;100583.06;1670218;84;21236;-56
2022/08/07 15:10:32;;;;;;;5.22;1.80;;;;;;;31.90;36.46;100581.77;1660441;82;21814;-57